Time;durP1;ratioP1;P1;durP2;ratioP2;P2;SDS_P1;SDS_P2;PMS_P1;PMS_P2;Temp;Humidity;BMP_temperature;BMP_pressure;BME280_temperature;BME280_humidity;BME280_pressure;Samples;Min_cycle;Max_cycle;Signal;HPM_P1;HPM_P2
2021/03/16 00:00:00;;;;;;;4.05;2.97;;;9.50;57.10;;;;;;5082922;28;20026;-61
2021/03/16 00:02:26;;;;;;;4.55;2.83;;;9.50;57.10;;;;;;5085825;28;20028;-61
2021/03/16 00:04:52;;;;;;;7.35;3.42;;;9.50;57.10;;;;;;5085742;28;20028;-60
2021/03/16 00:07:20;;;;;;;8.93;3.75;;;9.50;57.10;;;;;;5085703;28;20181;-60
2021/03/16 00:09:46;;;;;;;4.68;3.70;;;9.50;57.10;;;;;;5085681;28;20020;-61
2021/03/16 00:12:12;;;;;;;6.07;3.67;;;9.50;57.10;;;;;;5085607;28;20035;-61
2021/03/16 00:14:38;;;;;;;6.35;2.92;;;9.50;57.10;;;;;;5085562;28;20328;-61
2021/03/16 00:17:04;;;;;;;5.10;3.45;;;9.50;57.10;;;;;;5085497;28;20268;-62
2021/03/16 00:19:29;;;;;;;6.93;3.50;;;9.50;57.10;;;;;;5085364;28;20017;-62
2021/03/16 00:21:55;;;;;;;6.50;3.38;;;9.50;57.10;;;;;;5085418;28;20084;-62
2021/03/16 00:24:21;;;;;;;5.28;3.35;;;9.50;57.10;;;;;;5085329;28;20033;-61
2021/03/16 00:26:46;;;;;;;4.57;3.20;;;9.60;57.20;;;;;;5085307;28;20029;-60
2021/03/16 00:29:12;;;;;;;5.50;3.70;;;9.50;57.10;;;;;;5085230;28;20032;-62
2021/03/16 00:31:38;;;;;;;4.82;3.08;;;9.50;57.10;;;;;;5085222;28;20024;-61
2021/03/16 00:34:04;;;;;;;4.78;3.15;;;9.50;57.10;;;;;;5085147;28;20029;-60
2021/03/16 00:36:29;;;;;;;7.47;3.35;;;9.50;57.20;;;;;;5085108;28;20065;-61
2021/03/16 00:38:55;;;;;;;6.85;3.58;;;9.50;57.20;;;;;;5084811;28;20040;-62
2021/03/16 00:41:20;;;;;;;7.35;4.35;;;9.50;57.20;;;;;;5084999;28;20086;-61
2021/03/16 00:43:48;;;;;;;4.45;2.97;;;9.50;57.20;;;;;;5084990;28;20043;-61
2021/03/16 00:46:14;;;;;;;7.10;3.25;;;9.50;57.20;;;;;;5084914;28;20027;-60
2021/03/16 00:48:39;;;;;;;7.03;3.30;;;9.50;57.10;;;;;;5084895;28;20250;-62
2021/03/16 00:51:05;;;;;;;7.03;3.17;;;9.50;57.20;;;;;;5084837;28;20312;-62
2021/03/16 00:53:31;;;;;;;5.68;3.55;;;9.50;57.20;;;;;;5083596;28;20050;-61
2021/03/16 00:55:56;;;;;;;5.30;3.67;;;9.50;57.20;;;;;;5084763;28;20032;-60
2021/03/16 00:58:29;;;;;;;6.15;3.13;;;9.50;57.30;;;;;;5084665;28;20031;-61
2021/03/16 01:00:56;;;;;;;4.47;3.28;;;9.50;57.30;;;;;;5084637;28;20209;-63
2021/03/16 01:03:22;;;;;;;5.65;4.40;;;9.50;57.30;;;;;;5084621;28;20028;-62
2021/03/16 01:05:48;;;;;;;4.78;3.00;;;9.40;57.20;;;;;;5084583;28;20343;-61
2021/03/16 01:08:14;;;;;;;5.05;3.05;;;9.40;57.20;;;;;;5084551;28;20389;-61
2021/03/16 01:10:41;;;;;;;3.83;3.05;;;9.50;57.30;;;;;;5083995;28;20067;-61
2021/03/16 01:13:06;;;;;;;3.33;2.58;;;9.40;57.20;;;;;;5084491;28;20024;-62
2021/03/16 01:15:32;;;;;;;4.63;3.30;;;9.40;57.30;;;;;;5084402;28;20059;-61
2021/03/16 01:17:59;;;;;;;5.47;4.05;;;9.40;57.20;;;;;;5084283;28;20035;-62
2021/03/16 01:20:25;;;;;;;4.20;3.03;;;9.40;57.30;;;;;;5084322;28;20012;-63
2021/03/16 01:22:51;;;;;;;4.93;2.95;;;9.40;57.30;;;;;;5084288;28;20016;-62
2021/03/16 01:25:16;;;;;;;5.20;3.22;;;9.40;57.30;;;;;;5084219;28;20208;-60
2021/03/16 01:27:42;;;;;;;4.30;3.50;;;9.40;57.30;;;;;;5084182;28;20032;-61
2021/03/16 01:30:09;;;;;;;7.28;3.17;;;9.40;57.30;;;;;;5084164;28;20091;-62
2021/03/16 01:32:36;;;;;;;5.15;3.25;;;9.40;57.30;;;;;;5084342;28;20039;-63
2021/03/16 01:35:03;;;;;;;5.40;3.22;;;9.40;57.30;;;;;;5084071;28;20021;-61
2021/03/16 01:37:29;;;;;;;5.53;3.42;;;9.40;57.30;;;;;;5083849;28;20084;-63
2021/03/16 01:39:55;;;;;;;5.00;3.53;;;9.40;57.30;;;;;;5083897;28;20058;-62
2021/03/16 01:42:21;;;;;;;5.13;3.08;;;9.40;57.30;;;;;;5083908;28;20024;-62
2021/03/16 01:44:47;;;;;;;6.75;3.95;;;9.40;57.40;;;;;;5083861;28;20028;-62
2021/03/16 01:47:15;;;;;;;6.40;3.45;;;9.40;57.50;;;;;;5083785;28;20080;-62
2021/03/16 01:49:42;;;;;;;6.78;2.88;;;9.40;57.40;;;;;;5083772;28;20079;-61
2021/03/16 01:52:09;;;;;;;7.40;3.90;;;9.40;57.40;;;;;;5083741;28;20095;-61
2021/03/16 01:54:38;;;;;;;5.75;3.40;;;9.40;57.40;;;;;;5083683;28;20028;-62
2021/03/16 01:57:04;;;;;;;4.32;2.95;;;9.40;57.40;;;;;;5083651;28;20031;-61
2021/03/16 01:59:30;;;;;;;4.32;3.08;;;9.40;57.40;;;;;;5083441;28;20489;-61
2021/03/16 02:01:56;;;;;;;6.20;3.47;;;9.40;57.30;;;;;;5083542;28;20033;-63
2021/03/16 02:04:22;;;;;;;4.97;3.40;;;9.40;57.30;;;;;;5083476;28;20043;-61
2021/03/16 02:07:01;;;;;;;6.28;3.47;;;9.40;57.40;;;;;;5083441;28;20028;-61
2021/03/16 02:09:42;;;;;;;7.32;3.35;;;9.40;57.40;;;;;;5083411;28;20016;-62
2021/03/16 02:12:29;;;;;;;5.55;2.95;;;9.40;57.50;;;;;;5083310;28;20033;-62
2021/03/16 02:15:23;;;;;;;8.23;3.42;;;9.40;58.10;;;;;;5083275;28;20043;-62
2021/03/16 02:17:54;;;;;;;7.03;3.92;;;9.40;57.50;;;;;;5083028;28;20032;-61
2021/03/16 02:21:01;;;;;;;4.47;3.20;;;9.40;57.50;;;;;;5083236;28;20318;-62
2021/03/16 02:23:55;;;;;;;6.30;3.80;;;9.30;57.40;;;;;;5076845;28;20028;-62
2021/03/16 02:26:32;;;;;;;6.97;4.00;;;9.30;57.50;;;;;;5083059;28;20024;-60
2021/03/16 02:29:06;;;;;;;4.53;3.90;;;9.30;57.50;;;;;;5082994;28;20314;-62
2021/03/16 02:31:33;;;;;;;6.28;3.15;;;9.30;57.50;;;;;;5082957;28;20025;-60
2021/03/16 02:34:02;;;;;;;8.55;3.85;;;9.40;57.60;;;;;;5082873;28;20020;-62
2021/03/16 02:36:28;;;;;;;5.70;3.33;;;9.30;57.60;;;;;;5083109;28;20291;-62
2021/03/16 02:38:55;;;;;;;4.80;3.30;;;9.30;57.60;;;;;;5082515;28;20063;-61
2021/03/16 02:41:23;;;;;;;5.03;2.90;;;9.30;57.50;;;;;;5082711;28;20047;-62
2021/03/16 02:43:48;;;;;;;4.43;2.97;;;9.30;57.60;;;;;;5082687;28;20028;-62
2021/03/16 02:46:16;;;;;;;5.85;3.00;;;9.30;57.60;;;;;;5082639;28;20239;-62
2021/03/16 02:48:45;;;;;;;4.18;3.28;;;9.30;57.50;;;;;;5082599;28;20032;-62
2021/03/16 02:51:11;;;;;;;3.45;2.72;;;9.30;57.60;;;;;;5082531;28;20027;-62
2021/03/16 02:53:39;;;;;;;3.45;2.92;;;9.30;57.50;;;;;;5082506;28;20020;-62
2021/03/16 02:56:05;;;;;;;5.38;3.22;;;9.30;57.60;;;;;;5082497;28;20020;-62
2021/03/16 02:58:33;;;;;;;5.30;3.35;;;9.30;57.60;;;;;;5082601;28;20020;-64
2021/03/16 03:01:00;;;;;;;9.07;3.03;;;9.30;57.60;;;;;;5082699;28;20013;-62
2021/03/16 03:03:28;;;;;;;5.35;3.47;;;9.30;57.60;;;;;;5082388;28;20286;-62
2021/03/16 03:05:55;;;;;;;5.50;3.00;;;9.30;58.20;;;;;;5082322;28;20299;-63
2021/03/16 03:08:23;;;;;;;4.03;3.15;;;9.30;57.60;;;;;;5082294;28;20087;-61
2021/03/16 03:10:49;;;;;;;5.25;3.22;;;9.30;57.60;;;;;;5082271;28;20066;-62
2021/03/16 03:13:14;;;;;;;5.28;3.20;;;9.30;57.70;;;;;;5082252;28;20024;-64
2021/03/16 03:15:40;;;;;;;4.93;2.88;;;9.30;57.70;;;;;;5082201;28;20324;-60
2021/03/16 03:18:06;;;;;;;4.75;2.90;;;9.30;57.70;;;;;;5082106;28;20039;-62
2021/03/16 03:20:36;;;;;;;4.60;3.20;;;9.20;57.70;;;;;;5082136;28;20031;-63
2021/03/16 03:23:10;;;;;;;3.92;3.35;;;9.20;57.70;;;;;;5082126;28;20048;-61
2021/03/16 03:25:41;;;;;;;6.88;2.92;;;9.20;57.70;;;;;;5082138;28;20020;-61
2021/03/16 03:28:16;;;;;;;5.63;3.08;;;9.20;57.80;;;;;;5082061;28;20025;-61
2021/03/16 03:30:45;;;;;;;4.55;3.13;;;9.20;57.70;;;;;;5082068;28;20043;-61
2021/03/16 03:33:12;;;;;;;7.18;3.65;;;9.30;57.80;;;;;;5081957;28;20313;-61
2021/03/16 03:35:39;;;;;;;7.25;3.42;;;9.30;57.60;;;;;;5081890;28;20044;-62
2021/03/16 03:38:06;;;;;;;5.93;3.50;;;9.20;57.60;;;;;;5081687;28;20036;-61
2021/03/16 03:40:33;;;;;;;3.70;3.03;;;9.20;57.60;;;;;;5081923;28;20032;-61
2021/03/16 03:43:02;;;;;;;3.95;2.90;;;9.20;57.70;;;;;;5081912;28;20017;-63
2021/03/16 03:45:29;;;;;;;6.05;3.35;;;9.20;57.60;;;;;;5081937;28;20028;-61
2021/03/16 03:47:58;;;;;;;4.60;3.15;;;9.20;57.80;;;;;;5082160;28;20044;-62
2021/03/16 03:50:24;;;;;;;4.20;3.10;;;9.20;57.70;;;;;;5081872;28;20020;-61
2021/03/16 03:52:52;;;;;;;4.70;3.10;;;9.20;57.70;;;;;;5081856;28;20079;-62
2021/03/16 03:55:19;;;;;;;4.68;2.88;;;9.20;57.80;;;;;;5081814;28;20040;-62
2021/03/16 03:57:46;;;;;;;4.88;3.10;;;9.20;57.60;;;;;;5081678;28;20027;-61
2021/03/16 04:00:13;;;;;;;7.00;3.75;;;9.20;57.60;;;;;;5081777;28;20024;-60
2021/03/16 04:02:42;;;;;;;5.30;3.28;;;9.20;57.50;;;;;;5081700;28;20021;-62
2021/03/16 04:05:12;;;;;;;6.55;3.10;;;9.20;57.70;;;;;;5081740;28;20033;-61
2021/03/16 04:07:38;;;;;;;5.05;3.10;;;9.20;57.80;;;;;;5081645;28;20056;-61
2021/03/16 04:10:06;;;;;;;5.30;3.70;;;9.20;57.80;;;;;;5081641;28;20024;-61
2021/03/16 04:12:33;;;;;;;5.72;3.88;;;9.20;57.80;;;;;;5081645;28;20030;-61
2021/03/16 04:15:00;;;;;;;5.57;3.80;;;9.20;57.90;;;;;;5081626;28;20022;-63
2021/03/16 04:17:26;;;;;;;5.35;3.63;;;9.20;57.80;;;;;;5081609;28;20523;-62
2021/03/16 04:19:54;;;;;;;3.88;3.22;;;9.20;57.90;;;;;;5081505;28;20054;-62
2021/03/16 04:22:22;;;;;;;5.97;3.40;;;9.10;57.80;;;;;;5081564;28;20378;-62
2021/03/16 04:24:49;;;;;;;4.63;3.22;;;9.20;57.80;;;;;;5081512;28;20055;-61
2021/03/16 04:27:15;;;;;;;6.57;3.33;;;9.20;57.70;;;;;;5081484;28;20040;-63
2021/03/16 04:29:41;;;;;;;5.47;3.40;;;9.20;57.70;;;;;;5081459;28;20025;-62
2021/03/16 04:32:06;;;;;;;5.25;3.03;;;9.10;57.90;;;;;;5081457;28;20366;-62
2021/03/16 04:34:32;;;;;;;4.88;3.53;;;9.20;57.90;;;;;;5081635;28;20028;-62
2021/03/16 04:36:57;;;;;;;3.95;2.80;;;9.20;57.90;;;;;;5081401;28;20052;-62
2021/03/16 04:39:23;;;;;;;4.88;3.17;;;9.10;57.90;;;;;;5081131;28;20058;-62
2021/03/16 04:41:49;;;;;;;5.32;3.00;;;9.10;57.90;;;;;;5081354;28;20025;-62
2021/03/16 04:44:14;;;;;;;5.30;3.28;;;9.10;57.60;;;;;;5081339;28;20023;-62
2021/03/16 04:46:40;;;;;;;6.55;3.28;;;9.10;57.80;;;;;;5083329;28;20028;-61
2021/03/16 04:49:06;;;;;;;4.78;3.28;;;9.20;57.90;;;;;;5084934;28;20020;-62
2021/03/16 04:51:31;;;;;;;5.25;3.30;;;9.20;57.80;;;;;;5084827;28;20024;-63
2021/03/16 04:53:57;;;;;;;5.90;3.30;;;9.10;57.70;;;;;;5084839;28;20024;-61
2021/03/16 04:56:23;;;;;;;4.95;3.28;;;9.20;57.50;;;;;;5085045;28;20024;-61
2021/03/16 04:58:48;;;;;;;4.68;3.38;;;9.10;57.70;;;;;;5084666;28;20339;-62
2021/03/16 05:01:16;;;;;;;4.90;3.38;;;9.10;57.70;;;;;;5084931;28;20080;-63
2021/03/16 05:03:42;;;;;;;4.15;3.65;;;9.10;57.80;;;;;;5084651;28;20021;-61
2021/03/16 05:06:07;;;;;;;4.88;2.85;;;9.10;57.80;;;;;;5084613;28;20024;-62
2021/03/16 05:08:33;;;;;;;5.82;3.35;;;9.10;57.80;;;;;;5084553;28;20103;-62
2021/03/16 05:10:58;;;;;;;4.20;2.92;;;9.10;57.50;;;;;;5084531;28;20016;-63
2021/03/16 05:13:24;;;;;;;5.75;3.17;;;9.10;57.80;;;;;;5084481;28;20087;-61
2021/03/16 05:15:50;;;;;;;5.97;4.55;;;9.10;57.90;;;;;;5084435;28;20031;-62
2021/03/16 05:18:16;;;;;;;6.20;3.47;;;9.10;57.90;;;;;;5084323;28;20074;-62
2021/03/16 05:20:42;;;;;;;4.18;2.92;;;9.10;57.90;;;;;;5084353;28;20029;-62
2021/03/16 05:23:08;;;;;;;5.63;3.10;;;9.10;57.50;;;;;;5084284;28;20039;-62
2021/03/16 05:25:33;;;;;;;5.32;2.78;;;9.10;57.60;;;;;;5083880;28;20230;-61
2021/03/16 05:27:59;;;;;;;4.90;3.10;;;9.10;57.90;;;;;;5084232;28;20088;-64
2021/03/16 05:30:25;;;;;;;3.10;2.55;;;9.10;57.60;;;;;;5084181;28;20023;-63
2021/03/16 05:32:58;;;;;;;4.20;3.03;;;9.10;57.90;;;;;;5082884;28;20020;-61
2021/03/16 05:35:25;;;;;;;5.57;3.17;;;9.10;58.60;;;;;;5083999;28;20062;-64
2021/03/16 05:37:51;;;;;;;7.00;3.40;;;9.10;58.00;;;;;;5083830;28;20032;-63
2021/03/16 05:40:17;;;;;;;4.00;3.40;;;9.10;57.80;;;;;;5084006;28;20025;-61
2021/03/16 05:42:44;;;;;;;6.55;3.10;;;9.00;57.90;;;;;;5083952;28;20035;-62
2021/03/16 05:45:11;;;;;;;5.35;3.00;;;9.00;57.80;;;;;;5083883;28;20070;-62
2021/03/16 05:47:39;;;;;;;6.90;3.30;;;9.10;57.70;;;;;;5083839;28;20374;-62
2021/03/16 05:50:06;;;;;;;5.03;3.20;;;9.10;57.80;;;;;;5083794;28;20043;-62
2021/03/16 05:52:32;;;;;;;5.50;3.30;;;9.10;57.70;;;;;;5083973;28;20028;-62
2021/03/16 05:54:59;;;;;;;6.05;3.22;;;9.10;57.70;;;;;;5083722;28;20320;-61
2021/03/16 05:57:27;;;;;;;5.57;2.72;;;9.00;57.60;;;;;;5083632;28;20026;-62
2021/03/16 05:59:53;;;;;;;6.80;3.80;;;9.10;57.60;;;;;;5083508;28;20013;-62
2021/03/16 06:02:19;;;;;;;5.00;3.00;;;9.00;57.90;;;;;;5083530;28;20028;-62
2021/03/16 06:04:45;;;;;;;5.70;3.65;;;9.00;57.60;;;;;;5083536;28;20013;-62
2021/03/16 06:07:12;;;;;;;3.83;3.10;;;9.10;58.00;;;;;;5083452;28;20021;-61
2021/03/16 06:09:38;;;;;;;4.68;3.35;;;9.10;57.60;;;;;;5083650;28;20024;-62
2021/03/16 06:12:04;;;;;;;4.22;3.40;;;9.10;57.80;;;;;;5083360;28;20193;-62
2021/03/16 06:14:31;;;;;;;3.25;2.80;;;9.10;57.90;;;;;;5083307;28;20016;-62
2021/03/16 06:16:58;;;;;;;6.78;3.10;;;9.10;57.70;;;;;;5083233;28;20091;-61
2021/03/16 06:19:26;;;;;;;3.15;2.70;;;9.00;57.90;;;;;;5083091;28;20027;-62
2021/03/16 06:22:00;;;;;;;5.10;3.08;;;9.10;57.90;;;;;;5083156;28;20250;-61
2021/03/16 06:24:26;;;;;;;4.82;3.22;;;9.10;57.80;;;;;;5083140;28;20249;-62
2021/03/16 06:26:52;;;;;;;5.28;3.15;;;9.10;57.60;;;;;;5083039;28;20028;-62
2021/03/16 06:29:18;;;;;;;3.13;2.75;;;9.10;57.60;;;;;;5083005;28;20035;-61
2021/03/16 06:31:43;;;;;;;3.58;2.92;;;9.10;57.90;;;;;;5082919;28;20080;-62
2021/03/16 06:34:19;;;;;;;4.57;3.40;;;9.10;57.40;;;;;;5082900;28;20028;-62
2021/03/16 06:36:48;;;;;;;4.82;4.03;;;9.10;57.50;;;;;;5082850;28;20323;-62
2021/03/16 06:39:17;;;;;;;;;;;9.10;57.80;;;;;;5083008;28;20040;-61
2021/03/16 06:41:43;;;;;;;5.30;3.25;;;9.10;57.60;;;;;;5082773;28;19913;-61
2021/03/16 06:44:08;;;;;;;4.18;3.42;;;9.10;57.50;;;;;;5082723;28;20080;-62
2021/03/16 06:46:35;;;;;;;3.30;2.67;;;9.10;57.80;;;;;;5082657;28;20020;-61
2021/03/16 06:49:11;;;;;;;6.28;3.17;;;9.10;57.80;;;;;;5082601;28;20044;-61
2021/03/16 06:51:37;;;;;;;3.92;3.13;;;9.10;57.60;;;;;;5082608;28;20031;-62
2021/03/16 06:54:10;;;;;;;4.13;2.90;;;9.10;57.70;;;;;;5082522;28;20055;-62
2021/03/16 06:56:36;;;;;;;4.43;3.10;;;9.10;57.70;;;;;;5082498;28;20020;-62
2021/03/16 06:59:04;;;;;;;3.95;2.88;;;9.10;57.70;;;;;;5082356;28;20028;-61
2021/03/16 07:01:31;;;;;;;4.38;3.22;;;9.10;57.70;;;;;;5082442;28;20017;-62
2021/03/16 07:03:56;;;;;;;4.63;3.50;;;9.20;57.60;;;;;;5082408;28;20122;-62
2021/03/16 07:06:22;;;;;;;4.65;3.30;;;9.20;57.30;;;;;;5082354;28;20028;-61
2021/03/16 07:08:49;;;;;;;4.15;2.80;;;9.20;58.00;;;;;;5081893;28;20028;-64
2021/03/16 07:11:21;;;;;;;5.25;3.38;;;9.20;57.50;;;;;;5082283;28;20024;-63
2021/03/16 07:13:48;;;;;;;3.90;3.15;;;9.20;57.40;;;;;;5082290;28;20052;-61
2021/03/16 07:16:14;;;;;;;4.47;3.00;;;9.20;57.50;;;;;;5082219;28;20028;-62
2021/03/16 07:18:45;;;;;;;4.10;2.85;;;9.10;57.60;;;;;;5082119;28;20050;-62
2021/03/16 07:21:26;;;;;;;4.30;3.33;;;9.10;57.50;;;;;;5082148;28;20013;-64
2021/03/16 07:24:10;;;;;;;4.20;3.08;;;9.10;57.60;;;;;;5082160;28;20163;-61
2021/03/16 07:26:37;;;;;;;4.88;3.25;;;9.10;57.50;;;;;;5082179;28;20035;-62
2021/03/16 07:29:08;;;;;;;5.80;3.38;;;9.10;57.70;;;;;;5082079;28;20133;-62
2021/03/16 07:31:35;;;;;;;4.90;3.17;;;;;;;;;;5082054;28;20216;-61
2021/03/16 07:34:10;;;;;;;5.13;2.95;;;9.20;61.50;;;;;;5082020;28;20084;-63
2021/03/16 07:36:38;;;;;;;4.10;2.97;;;9.20;62.40;;;;;;5082027;28;20032;-62
2021/03/16 07:39:07;;;;;;;4.03;3.05;;;9.10;62.60;;;;;;5081741;28;20368;-61
2021/03/16 07:41:35;;;;;;;4.97;2.95;;;9.20;62.60;;;;;;5081976;28;20342;-62
2021/03/16 07:44:07;;;;;;;6.63;4.13;;;9.20;62.00;;;;;;5081965;28;20016;-60
2021/03/16 07:46:58;;;;;;;4.85;3.17;;;9.20;62.10;;;;;;5081889;28;20028;-62
2021/03/16 07:49:35;;;;;;;4.10;3.00;;;9.20;63.20;;;;;;5081900;28;20301;-63
2021/03/16 07:52:03;;;;;;;4.07;3.30;;;9.20;63.30;;;;;;5081863;28;20336;-62
2021/03/16 07:54:36;;;;;;;3.90;3.10;;;9.10;57.80;;;;;;5082130;28;20059;-62
2021/03/16 07:57:02;;;;;;;3.88;3.10;;;9.10;57.60;;;;;;5081784;28;20043;-60
2021/03/16 07:59:32;;;;;;;4.10;2.80;;;9.10;57.70;;;;;;5081690;28;20043;-61
2021/03/16 08:01:59;;;;;;;3.97;2.85;;;9.10;57.60;;;;;;5081773;28;20373;-62
2021/03/16 08:04:33;;;;;;;4.13;3.08;;;9.10;57.70;;;;;;5081726;28;20031;-63
2021/03/16 08:07:00;;;;;;;3.47;3.00;;;9.10;57.70;;;;;;5082003;28;20075;-63
2021/03/16 08:09:26;;;;;;;4.70;3.53;;;9.10;57.70;;;;;;5081683;28;20024;-63
2021/03/16 08:11:52;;;;;;;3.17;2.88;;;9.10;66.40;;;;;;5081677;28;20093;-64
2021/03/16 08:14:29;;;;;;;4.28;2.80;;;9.10;57.70;;;;;;5081630;28;20201;-62
2021/03/16 08:16:55;;;;;;;4.72;3.33;;;9.10;58.20;;;;;;5081611;28;20047;-63
2021/03/16 08:19:42;;;;;;;4.57;3.10;;;9.20;57.60;;;;;;5081526;28;20021;-61
2021/03/16 08:22:10;;;;;;;4.18;3.20;;;9.20;58.10;;;;;;5084125;28;20459;-61
2021/03/16 08:24:38;;;;;;;3.97;3.00;;;9.10;57.60;;;;;;5085445;28;20012;-62
2021/03/16 08:27:07;;;;;;;4.70;3.08;;;9.10;57.60;;;;;;5085358;28;20028;-61
2021/03/16 08:29:32;;;;;;;;;;;9.20;57.60;;;;;;5085775;28;20103;-61
2021/03/16 08:31:59;;;;;;;5.30;3.08;;;9.20;58.30;;;;;;5085538;28;19912;-62
2021/03/16 08:34:27;;;;;;;3.70;3.05;;;9.10;57.70;;;;;;5085203;28;20027;-62
2021/03/16 08:36:53;;;;;;;4.05;3.00;;;9.10;57.80;;;;;;5085124;28;20016;-63
2021/03/16 08:39:21;;;;;;;5.15;3.08;;;9.10;57.80;;;;;;5084883;28;20048;-62
2021/03/16 08:42:01;;;;;;;6.77;3.37;;;9.10;57.70;;;;;;5085107;28;20091;-62
2021/03/16 08:44:29;;;;;;;3.47;2.75;;;9.10;57.70;;;;;;5085027;28;20332;-62
2021/03/16 08:46:59;;;;;;;3.92;2.63;;;9.10;57.70;;;;;;5084984;28;20040;-61
2021/03/16 08:49:25;;;;;;;3.83;3.03;;;9.20;57.70;;;;;;5084910;28;20028;-62
2021/03/16 08:51:52;;;;;;;4.25;2.97;;;9.20;57.70;;;;;;5084892;28;20023;-62
2021/03/16 08:54:27;;;;;;;4.43;3.28;;;9.20;57.80;;;;;;5084850;28;20025;-62
2021/03/16 08:56:54;;;;;;;5.60;2.97;;;9.20;57.80;;;;;;5084802;28;20091;-61
2021/03/16 08:59:21;;;;;;;4.85;3.17;;;9.20;57.80;;;;;;5084691;28;20017;-62
2021/03/16 09:01:49;;;;;;;3.30;2.90;;;9.20;57.80;;;;;;5084712;28;20024;-61
2021/03/16 09:04:15;;;;;;;3.67;2.85;;;9.20;57.90;;;;;;5084656;28;20016;-62
2021/03/16 09:06:41;;;;;;;5.03;3.20;;;9.20;57.90;;;;;;5084638;28;20017;-61
2021/03/16 09:09:08;;;;;;;4.32;3.05;;;9.20;57.80;;;;;;5084585;28;20380;-61
2021/03/16 09:11:40;;;;;;;5.10;3.22;;;9.20;57.70;;;;;;5084516;28;20020;-61
2021/03/16 09:14:15;;;;;;;5.10;3.10;;;9.20;57.70;;;;;;5084806;28;20016;-62
2021/03/16 09:16:52;;;;;;;3.72;2.53;;;9.20;57.70;;;;;;5083247;28;20025;-62
2021/03/16 09:19:21;;;;;;;3.65;2.92;;;9.20;57.80;;;;;;5083103;28;20051;-62
2021/03/16 09:21:52;;;;;;;4.40;3.10;;;9.20;57.90;;;;;;5084649;28;20073;-61
2021/03/16 09:24:20;;;;;;;4.65;3.00;;;9.20;57.90;;;;;;5084339;28;20044;-62
2021/03/16 09:26:52;;;;;;;4.18;2.92;;;9.20;57.80;;;;;;5084574;28;20016;-62
2021/03/16 09:29:18;;;;;;;3.70;2.78;;;9.20;57.80;;;;;;5084274;28;20062;-61
2021/03/16 09:31:44;;;;;;;3.55;2.50;;;9.20;57.80;;;;;;5083863;28;20032;-62
2021/03/16 09:34:12;;;;;;;3.10;2.65;;;9.30;57.80;;;;;;5084146;28;20016;-63
2021/03/16 09:36:38;;;;;;;3.47;2.83;;;9.30;57.80;;;;;;5084160;28;20036;-61
2021/03/16 09:39:04;;;;;;;4.70;3.13;;;9.30;57.80;;;;;;5083859;28;20045;-61
2021/03/16 09:41:30;;;;;;;3.78;2.90;;;9.20;57.80;;;;;;5084006;28;20084;-62
2021/03/16 09:43:56;;;;;;;4.32;2.72;;;9.20;57.90;;;;;;5083960;28;20050;-62
2021/03/16 09:46:21;;;;;;;4.93;3.03;;;9.30;57.90;;;;;;5083911;28;20097;-63
2021/03/16 09:48:49;;;;;;;5.28;3.20;;;9.30;57.80;;;;;;5084136;28;20032;-61
2021/03/16 09:51:24;;;;;;;2.75;2.47;;;9.30;57.70;;;;;;5083809;28;20044;-62
2021/03/16 09:53:52;;;;;;;3.80;2.60;;;9.30;57.70;;;;;;5083764;28;20012;-63
2021/03/16 09:56:25;;;;;;;4.47;2.75;;;9.30;57.70;;;;;;5083696;28;20260;-61
2021/03/16 09:58:51;;;;;;;4.75;2.97;;;9.30;57.70;;;;;;5083891;28;20020;-62
2021/03/16 10:01:21;;;;;;;3.92;2.90;;;9.30;57.70;;;;;;5083843;28;20024;-62
2021/03/16 10:03:59;;;;;;;5.68;3.15;;;9.40;57.70;;;;;;5083575;28;20048;-59
2021/03/16 10:06:38;;;;;;;4.25;2.67;;;9.30;57.70;;;;;;5083778;28;20020;-63
2021/03/16 10:09:38;;;;;;;4.50;3.00;;;9.30;57.80;;;;;;5083338;28;20063;-63
2021/03/16 10:12:16;;;;;;;5.53;3.50;;;9.30;57.80;;;;;;5076003;28;20103;-61
2021/03/16 10:14:43;;;;;;;3.97;2.95;;;9.40;57.70;;;;;;5083359;28;20244;-61
2021/03/16 10:17:09;;;;;;;4.28;2.90;;;9.40;57.70;;;;;;5083280;28;20047;-62
2021/03/16 10:19:35;;;;;;;3.83;2.50;;;9.40;57.60;;;;;;5083154;28;20205;-63
2021/03/16 10:22:11;;;;;;;3.55;2.65;;;9.40;57.60;;;;;;5083189;28;20016;-62
2021/03/16 10:24:36;;;;;;;3.95;3.00;;;9.50;57.60;;;;;;5083202;28;20527;-62
2021/03/16 10:27:02;;;;;;;4.25;2.72;;;9.50;57.50;;;;;;5083078;28;20092;-63
2021/03/16 10:29:29;;;;;;;2.83;2.20;;;;;;;;;;5083012;28;20035;-62
2021/03/16 10:31:54;;;;;;;5.30;2.80;;;9.50;57.00;;;;;;5082988;28;20020;-61
2021/03/16 10:34:20;;;;;;;3.70;2.85;;;9.50;57.50;;;;;;5082952;28;20139;-61
2021/03/16 10:36:46;;;;;;;3.88;2.63;;;9.50;57.50;;;;;;5082896;28;20092;-62
2021/03/16 10:39:12;;;;;;;4.32;2.95;;;9.50;57.60;;;;;;5082645;28;20385;-63
2021/03/16 10:41:37;;;;;;;3.30;2.60;;;9.50;57.60;;;;;;5082821;28;20021;-61
2021/03/16 10:44:03;;;;;;;3.83;2.75;;;9.50;57.60;;;;;;5082065;28;20032;-62
2021/03/16 10:46:29;;;;;;;3.97;2.92;;;9.50;57.70;;;;;;5082725;28;20016;-62
2021/03/16 10:48:55;;;;;;;5.07;2.50;;;9.50;57.70;;;;;;5082690;28;20082;-63
2021/03/16 10:51:21;;;;;;;4.03;2.63;;;9.50;57.60;;;;;;5082623;28;20036;-61
2021/03/16 10:53:47;;;;;;;3.97;2.83;;;9.50;57.70;;;;;;5082604;28;20089;-62
2021/03/16 10:56:13;;;;;;;5.43;3.28;;;9.50;57.70;;;;;;5082558;28;20032;-62
2021/03/16 10:58:38;;;;;;;4.93;2.70;;;9.50;57.80;;;;;;5082413;28;20020;-62
2021/03/16 11:01:04;;;;;;;4.45;2.78;;;9.50;57.70;;;;;;5082458;28;20069;-62
2021/03/16 11:03:33;;;;;;;3.78;2.70;;;9.60;57.70;;;;;;5082427;28;20013;-62
2021/03/16 11:05:59;;;;;;;3.85;2.70;;;9.60;57.60;;;;;;5082380;28;20239;-62
2021/03/16 11:08:25;;;;;;;2.53;2.10;;;9.60;57.60;;;;;;5082376;28;20021;-62
2021/03/16 11:10:50;;;;;;;4.05;2.90;;;9.60;57.50;;;;;;5082336;28;20063;-61
2021/03/16 11:13:16;;;;;;;4.38;2.72;;;9.60;57.40;;;;;;5082620;28;20020;-62
2021/03/16 11:15:42;;;;;;;3.45;2.58;;;9.60;57.50;;;;;;5082295;28;20048;-61
2021/03/16 11:18:08;;;;;;;2.85;2.42;;;9.60;57.50;;;;;;5082187;28;20091;-61
2021/03/16 11:20:33;;;;;;;3.50;2.75;;;9.70;57.40;;;;;;5082214;28;20077;-61
2021/03/16 11:22:59;;;;;;;4.25;3.03;;;9.60;57.50;;;;;;5082196;28;20016;-62
2021/03/16 11:25:25;;;;;;;3.33;2.50;;;9.70;57.40;;;;;;5082184;28;20028;-62
2021/03/16 11:27:52;;;;;;;4.28;2.65;;;9.60;57.50;;;;;;5082078;28;20023;-62
2021/03/16 11:30:18;;;;;;;3.38;2.40;;;9.70;57.50;;;;;;5082107;28;20036;-61
2021/03/16 11:32:44;;;;;;;4.20;2.65;;;9.70;57.50;;;;;;5082064;28;20026;-61
2021/03/16 11:35:10;;;;;;;3.30;2.65;;;9.70;57.40;;;;;;5082063;28;20020;-62
2021/03/16 11:37:36;;;;;;;3.30;2.47;;;9.70;57.50;;;;;;5081888;28;20308;-63
2021/03/16 11:40:03;;;;;;;4.18;2.65;;;9.70;57.50;;;;;;5081964;28;20040;-61
2021/03/16 11:42:28;;;;;;;4.25;2.60;;;9.70;57.50;;;;;;5081910;28;20021;-60
2021/03/16 11:44:54;;;;;;;2.50;2.28;;;9.70;57.40;;;;;;5080785;28;20322;-61
2021/03/16 11:47:20;;;;;;;4.35;3.10;;;9.70;57.40;;;;;;5081904;28;20084;-62
2021/03/16 11:49:45;;;;;;;2.75;2.50;;;9.70;57.40;;;;;;5082143;28;20074;-63
2021/03/16 11:52:11;;;;;;;3.08;2.25;;;9.70;57.40;;;;;;5081900;28;20347;-61
2021/03/16 11:54:37;;;;;;;3.33;2.80;;;9.80;57.40;;;;;;5082432;28;20044;-62
2021/03/16 11:57:03;;;;;;;4.05;2.45;;;9.80;57.40;;;;;;5085989;28;20036;-62
2021/03/16 11:59:29;;;;;;;2.42;2.15;;;9.80;57.30;;;;;;5085872;28;20084;-63
2021/03/16 12:01:54;;;;;;;2.72;2.28;;;9.80;57.20;;;;;;5085890;28;20028;-61
2021/03/16 12:04:20;;;;;;;3.78;2.75;;;9.90;57.30;;;;;;5085847;28;20024;-62
2021/03/16 12:06:46;;;;;;;3.45;3.05;;;9.90;57.20;;;;;;5085835;28;20304;-62
2021/03/16 12:09:12;;;;;;;4.07;2.67;;;9.80;57.30;;;;;;5085764;28;20047;-61
2021/03/16 12:11:38;;;;;;;3.05;2.10;;;9.80;57.30;;;;;;5085713;28;20320;-61
2021/03/16 12:14:04;;;;;;;4.10;2.70;;;9.80;57.20;;;;;;5085678;28;20024;-61
2021/03/16 12:16:29;;;;;;;3.50;2.53;;;9.90;57.30;;;;;;5085625;28;20024;-62
2021/03/16 12:18:55;;;;;;;3.58;2.72;;;9.90;57.20;;;;;;5085502;28;20024;-61
2021/03/16 12:21:22;;;;;;;3.03;2.35;;;9.90;57.20;;;;;;5085489;28;20024;-62
2021/03/16 12:23:47;;;;;;;4.35;2.60;;;9.90;57.30;;;;;;5085464;28;20024;-61
2021/03/16 12:26:13;;;;;;;3.15;2.15;;;9.90;57.30;;;;;;5085441;28;20071;-61
2021/03/16 12:28:39;;;;;;;3.72;2.47;;;9.90;57.20;;;;;;5085363;28;20020;-61
2021/03/16 12:31:04;;;;;;;3.72;2.80;;;9.90;57.20;;;;;;5085321;28;20054;-62
2021/03/16 12:33:30;;;;;;;3.55;2.33;;;10.00;57.20;;;;;;5085264;28;20022;-61
2021/03/16 12:35:56;;;;;;;4.55;2.25;;;10.00;57.10;;;;;;5085249;28;20012;-61
2021/03/16 12:38:21;;;;;;;5.22;2.58;;;9.90;57.20;;;;;;5084937;28;20063;-61
2021/03/16 12:40:47;;;;;;;3.47;2.60;;;9.90;57.40;;;;;;5085143;28;20352;-62
2021/03/16 12:43:14;;;;;;;2.78;2.58;;;9.90;57.30;;;;;;5085114;28;20255;-62
2021/03/16 12:45:42;;;;;;;3.17;2.67;;;9.90;57.30;;;;;;5085101;28;20249;-60
2021/03/16 12:48:11;;;;;;;3.43;2.60;;;9.90;57.30;;;;;;5085056;28;20024;-60
2021/03/16 12:50:37;;;;;;;4.22;2.80;;;10.00;57.30;;;;;;5084988;28;20095;-61
2021/03/16 12:53:04;;;;;;;2.58;2.13;;;10.00;57.20;;;;;;5084952;28;20028;-61
2021/03/16 12:55:33;;;;;;;9.13;3.35;;;10.00;57.10;;;;;;5084865;28;20035;-61
2021/03/16 12:57:59;;;;;;;2.78;2.53;;;10.00;57.10;;;;;;5084763;28;20016;-62
2021/03/16 13:00:26;;;;;;;2.90;2.63;;;10.00;57.10;;;;;;5084792;28;20286;-62